createdAt,value
2019-04-26T00:03:20.978Z,1.5
2019-04-26T00:08:43.832Z,1.6
2019-04-26T00:14:07.185Z,1.5
2019-04-26T00:19:29.903Z,1.6
2019-04-26T00:24:52.630Z,1.8
2019-04-26T00:30:16.970Z,2.5
2019-04-26T00:35:47.153Z,2.4
2019-04-26T00:41:02.855Z,1.7
2019-04-26T00:46:25.604Z,1.9
2019-04-26T00:51:48.670Z,2.4
2019-04-26T00:57:11.455Z,2.2
2019-04-26T01:02:35.213Z,3.2
2019-04-26T01:07:58.060Z,3.2
2019-04-26T01:13:21.937Z,2.8
2019-04-26T01:18:44.529Z,2.5
2019-04-26T01:24:07.267Z,3.1
2019-04-26T01:29:29.936Z,2.8
2019-04-26T01:34:52.654Z,3.3
2019-04-26T01:40:15.398Z,3.6
2019-04-26T01:45:38.166Z,3.7
2019-04-26T01:51:01.023Z,3.9
2019-04-26T01:56:25.068Z,4.3
2019-04-26T02:01:47.582Z,4.1
2019-04-26T02:07:10.355Z,4.1
2019-04-26T02:12:33.159Z,4.4
2019-04-26T02:17:55.975Z,3.7
2019-04-26T02:23:18.736Z,5.3
2019-04-26T02:28:41.461Z,7.1
2019-04-26T02:34:04.198Z,8.1
2019-04-26T02:39:28.003Z,6.2
2019-04-26T02:44:50.786Z,7.5
2019-04-26T02:50:13.542Z,8.9
2019-04-26T02:55:40.103Z,10.7
2019-04-26T03:01:00.055Z,8.6
2019-04-26T03:06:27.023Z,8.9
2019-04-26T03:11:50.791Z,9.6
2019-04-26T03:17:13.501Z,10.6
2019-04-26T03:22:37.284Z,9.9
2019-04-26T03:28:00.031Z,11.4
2019-04-26T03:33:23.016Z,10.9
2019-04-26T03:38:45.484Z,11.8
2019-04-26T03:44:08.270Z,10.9
2019-04-26T03:49:31.019Z,12.2
2019-04-26T03:54:54.783Z,12.2
2019-04-26T04:00:17.563Z,13.4
2019-04-26T04:05:41.896Z,12.1
2019-04-26T04:11:04.934Z,11.9
2019-04-26T04:16:27.764Z,15.5
2019-04-26T04:21:50.580Z,14.1
2019-04-26T04:27:13.316Z,14.1
2019-04-26T04:32:36.139Z,13.4
2019-04-26T04:38:08.303Z,13.5
2019-04-26T04:43:24.487Z,15.4
2019-04-26T04:48:48.521Z,15.1
2019-04-26T04:54:10.718Z,14.7
2019-04-26T04:59:34.352Z,16.6
2019-04-26T05:04:57.126Z,15.5
2019-04-26T05:10:19.917Z,16.299999
2019-04-26T05:15:44.523Z,17.299999
2019-04-26T05:21:06.189Z,16.9
2019-04-26T05:26:28.973Z,18.6
2019-04-26T05:31:52.741Z,15.8
2019-04-26T05:37:14.566Z,17.4
2019-04-26T05:42:37.283Z,16.1
2019-04-26T05:48:07.902Z,15.4
2019-04-26T05:53:23.749Z,14.7
2019-04-26T05:58:46.460Z,13.9
2019-04-26T06:04:09.300Z,12.9
2019-04-26T06:09:32.137Z,11.3
2019-04-26T06:14:56.739Z,11.1
2019-04-26T06:20:22.957Z,10.2
2019-04-26T06:25:43.379Z,8.3
2019-04-26T06:31:06.065Z,8.6
2019-04-26T06:36:29.834Z,9.9
2019-04-26T06:41:54.722Z,8.5
2019-04-26T06:47:16.428Z,8.5
2019-04-26T06:52:39.118Z,8.5
2019-04-26T06:58:02.817Z,9.1
2019-04-26T07:03:24.791Z,9.8
2019-04-26T07:08:56.982Z,9.7
2019-04-26T07:14:11.553Z,9.5
2019-04-26T07:19:33.941Z,10.3
2019-04-26T07:24:57.552Z,10.5
2019-04-26T07:30:21.860Z,10.3
2019-04-26T07:35:43.045Z,10.8
2019-04-26T07:41:05.797Z,11.3
2019-04-26T07:46:28.509Z,12.1
2019-04-26T07:51:51.307Z,13.1
2019-04-26T07:57:14.015Z,15.9
2019-04-26T08:02:36.766Z,14.2
2019-04-26T08:07:59.456Z,14.7
2019-04-26T08:13:22.179Z,14.3
2019-04-26T08:18:45.689Z,14.6
2019-04-26T08:24:08.525Z,15.8
2019-04-26T08:29:33.296Z,14.8
2019-04-26T08:34:54.987Z,14.1
2019-04-26T08:40:25.426Z,15.7
2019-04-26T08:45:44.082Z,11.6
2019-04-26T08:51:05.824Z,10.7
2019-04-26T08:56:29.535Z,14.1
2019-04-26T09:01:52.211Z,14.9
2019-04-26T09:07:14.844Z,18
2019-04-26T09:12:37.509Z,14.4
2019-04-26T09:18:02.119Z,15.1
2019-04-26T09:23:23.890Z,19.5
2019-04-26T09:28:47.358Z,15
2019-04-26T09:34:11.533Z,15.8
2019-04-26T09:39:34.140Z,17.5
2019-04-26T09:44:57.771Z,14.7
2019-04-26T09:50:20.537Z,13.5
2019-04-26T09:55:43.200Z,12.3
2019-04-26T10:01:06.237Z,12
2019-04-26T10:06:30.966Z,13.6
2019-04-26T10:11:53.565Z,13
2019-04-26T10:17:17.435Z,11.7
2019-04-26T10:22:38.906Z,12.4
2019-04-26T10:28:01.647Z,11.2
2019-04-26T10:33:24.317Z,12
2019-04-26T10:38:46.999Z,11.9
2019-04-26T10:44:09.696Z,10.1
2019-04-26T10:49:32.330Z,10.9
2019-04-26T10:54:55.022Z,11.8
2019-04-26T11:00:17.932Z,10.9
2019-04-26T11:05:40.388Z,11
2019-04-26T11:11:03.040Z,11.1
2019-04-26T11:16:25.870Z,11.3
2019-04-26T11:21:50.959Z,11.5
2019-04-26T11:27:11.417Z,11.5
2019-04-26T11:32:36.705Z,12.3
2019-04-26T11:37:57.716Z,11.3
2019-04-26T11:43:21.074Z,12.3
2019-04-26T11:48:43.016Z,12.4
2019-04-26T11:54:05.728Z,12.8
2019-04-26T11:59:30.513Z,11.5
2019-04-26T12:04:53.668Z,11.7
2019-04-26T12:10:14.992Z,11.2
2019-04-26T12:15:38.924Z,10.7
2019-04-26T12:21:02.129Z,10.3
2019-04-26T12:26:26.265Z,11
2019-04-26T12:31:53.017Z,10.9
2019-04-26T12:37:19.846Z,11.1
2019-04-26T12:42:39.443Z,10.6
2019-04-26T12:48:03.206Z,10.6
2019-04-26T12:53:31.148Z,10
2019-04-26T12:58:51.283Z,9.4
2019-04-26T13:04:13.252Z,9.2
2019-04-26T13:09:35.980Z,8.9
2019-04-26T13:14:58.704Z,9.5
2019-04-26T13:20:24.228Z,9.7
2019-04-26T13:25:45.095Z,8.9
2019-04-26T13:31:07.738Z,8.6
2019-04-26T13:36:30.603Z,9.4
2019-04-26T13:42:02.392Z,10
2019-04-26T13:47:16.741Z,9.4
2019-04-26T13:52:39.458Z,8.7
2019-04-26T13:58:02.150Z,9.1
2019-04-26T14:03:26.992Z,9.3
2019-04-26T14:08:48.537Z,9.2
2019-04-26T14:14:12.817Z,8.7
2019-04-26T14:19:35.479Z,10.1
2019-04-26T14:24:58.560Z,9.8
2019-04-26T14:30:20.762Z,9.8
2019-04-26T14:35:46.188Z,10.2
2019-04-26T14:41:07.905Z,10.8
2019-04-26T14:46:31.479Z,10.3
2019-04-26T14:51:56.037Z,10.1
2019-04-26T14:57:22.009Z,10.8
2019-04-26T15:02:41.505Z,11.5
2019-04-26T15:08:09.399Z,11
2019-04-26T15:13:28.768Z,10.4
2019-04-26T15:18:52.615Z,10.4
2019-04-26T15:24:15.078Z,10.6
2019-04-26T15:29:37.732Z,10.5
2019-04-26T15:35:00.385Z,10.3
2019-04-26T15:40:23.468Z,12.4
2019-04-26T15:45:47.176Z,11.1
2019-04-26T15:51:09.804Z,9.6
2019-04-26T15:56:33.456Z,10.1
2019-04-26T16:01:56.438Z,8.9
2019-04-26T16:07:27.191Z,10.2
2019-04-26T16:12:42.401Z,9.8
2019-04-26T16:18:05.032Z,9.2
2019-04-26T16:23:39.181Z,9.2
2019-04-26T16:28:52.315Z,8.7
2019-04-26T16:34:14.894Z,8.3
2019-04-26T16:39:38.770Z,8.9
2019-04-26T16:45:04.417Z,8.5
2019-04-26T16:50:31.325Z,8.5
2019-04-26T16:55:52.390Z,7.9
2019-04-26T17:01:15.071Z,8.4
2019-04-26T17:06:44.244Z,8.8
2019-04-26T17:12:00.037Z,9.2
2019-04-26T17:17:22.878Z,8.8
2019-04-26T17:22:56.771Z,8.7
2019-04-26T17:28:09.037Z,9.5
2019-04-26T17:33:33.191Z,9.3
2019-04-26T17:38:55.858Z,9.8
2019-04-26T17:44:20.285Z,9.5
2019-04-26T17:49:43.937Z,10.3
2019-04-26T17:55:07.696Z,9.1
2019-04-26T18:00:30.047Z,9.9
2019-04-26T18:05:57.684Z,9.6
2019-04-26T18:11:24.843Z,9.7
2019-04-26T18:16:45.562Z,10.2
2019-04-26T18:22:08.485Z,10.3
2019-04-26T18:27:34.333Z,10.1
2019-04-26T18:32:55.917Z,10.2
2019-04-26T18:38:19.027Z,10.5
2019-04-26T18:43:43.014Z,10.5
2019-04-26T18:49:04.954Z,11.1
2019-04-26T18:54:27.615Z,11.1
2019-04-26T18:59:51.566Z,12
2019-04-26T19:05:15.565Z,12.3
2019-04-26T19:10:35.718Z,12.2
2019-04-26T19:16:01.003Z,12.7
2019-04-26T19:21:21.889Z,13
2019-04-26T19:26:49.559Z,13.1
2019-04-26T19:32:07.393Z,12.8
2019-04-26T19:37:36.646Z,14
2019-04-26T19:42:57.424Z,13.5
2019-04-26T19:48:20.477Z,13.5
2019-04-26T19:53:40.337Z,15.1
2019-04-26T19:59:05.194Z,14.2
2019-04-26T20:04:30.363Z,16.1
2019-04-26T20:09:52.435Z,14.9
2019-04-26T20:15:25.673Z,15.8
2019-04-26T20:20:39.396Z,15.3
2019-04-26T20:26:06.973Z,16.200001
2019-04-26T20:31:25.859Z,15.2
2019-04-26T20:36:48.522Z,16.200001
2019-04-26T20:42:12.168Z,17.200001
2019-04-26T20:47:34.878Z,17.299999
2019-04-26T20:53:00.523Z,17.5
2019-04-26T20:58:21.154Z,17.6
2019-04-26T21:03:45.860Z,18.4
2019-04-26T21:09:07.343Z,17.4
2019-04-26T21:14:31.579Z,19.1
2019-04-26T21:19:54.764Z,18
2019-04-26T21:25:17.384Z,18.700001
2019-04-26T21:30:42.088Z,18.1
2019-04-26T21:36:05.900Z,17.700001
2019-04-26T21:41:27.402Z,18.4
2019-04-26T21:46:54.140Z,18.299999
2019-04-26T21:52:15.101Z,19.4
2019-04-26T21:57:37.787Z,21.5
2019-04-26T22:03:00.734Z,19.200001
2019-04-26T22:08:25.727Z,21.700001
2019-04-26T22:13:47.137Z,21.4
2019-04-26T22:19:10.088Z,25.299999
2019-04-26T22:24:33.590Z,20.200001
2019-04-26T22:29:55.013Z,20.6
2019-04-26T22:35:21.346Z,19.5
2019-04-26T22:40:43.538Z,19.700001
2019-04-26T22:46:04.956Z,19.200001
2019-04-26T22:51:28.484Z,19.799999
2019-04-26T22:56:51.154Z,19.9
2019-04-26T23:02:13.899Z,20.1
2019-04-26T23:07:37.490Z,22
2019-04-26T23:13:02.686Z,20.200001
2019-04-26T23:18:24.190Z,20.1
2019-04-26T23:23:46.495Z,20.799999
2019-04-26T23:29:15.661Z,20.4
2019-04-26T23:34:35.150Z,21.799999
2019-04-26T23:39:58.470Z,21.200001
2019-04-26T23:45:23.094Z,22
2019-04-26T23:50:44.680Z,21.4
2019-04-26T23:56:07.333Z,25.200001
